»·PEaware :: SWA2323 KLAS-KSAN

SWA2323 :: KLAS-KSAN

FLIGHT INFORMATION

Flight Status: Arrived
Operator:
Southwest Airlines
More flights by this operator :: More flights under this callsign
Pilot: Jone M. (10385)
Aircraft: BOEING 737-800
(B738)
More flights by this aircraft type
Origin: KLAS McCarran Intl
United States
Destination: KSAN San Diego Intl-Lindbergh
United States
More flights between these airports :: More routes between these airports
Route: BOACH8 LVELL LUCKI1
File this flight plan on PilotEdge
Remarks: RMK / SIMBRIEF
Altitude:
(Current/Filed)
28,000ft
Speed:
(Current/Filed)
435kts
Departed: 03-Sep-20 02:26 PM
Arrived: 03-Sep-20 03:09 PM
Distance/Time
Traveled:
225nm/0:43
Distance/Time
To Go:
Arrived

Flight Plot

Page will automatically refresh every two minutes.

Flight plan parsing failed; only flown route is shown


Map Options




Map Legend


Flown Route
Filed Route
Departure Airport
Arrival Airport
Navaid (VOR, NDB)
Fix

Horizontal Profiles

Position Reports

Time Latitude Longitude Heading Altitude Ground
Speed
03-Sep-20 14:03 36.079777 -115.145814 336 2189ft 0kts
03-Sep-20 14:04 36.079777 -115.145814 336 2189ft 0kts
03-Sep-20 14:05 36.079777 -115.145814 336 2189ft 0kts
03-Sep-20 14:06 36.079777 -115.145814 336 2189ft 0kts
03-Sep-20 14:07 36.079777 -115.145814 336 2189ft 0kts
03-Sep-20 14:08 36.079777 -115.145814 336 2189ft 0kts
03-Sep-20 14:09 36.079777 -115.145814 336 2189ft 0kts
03-Sep-20 14:10 36.079777 -115.145814 336 2189ft 0kts
03-Sep-20 14:11 36.079777 -115.145814 336 2189ft 0kts
03-Sep-20 14:12 36.079777 -115.145814 336 2189ft 0kts
03-Sep-20 14:13 36.079777 -115.145814 336 2189ft 0kts
03-Sep-20 14:14 36.079776 -115.145814 336 2189ft 0kts
03-Sep-20 14:15 36.079259 -115.145539 336 2189ft 2kts
03-Sep-20 14:16 36.079032 -115.145020 241 2189ft 2kts
03-Sep-20 14:17 36.079343 -115.144819 179 2189ft 0kts
03-Sep-20 14:18 36.079342 -115.144819 179 2189ft 0kts
03-Sep-20 14:19 36.079342 -115.144819 179 2189ft 0kts
03-Sep-20 14:20 36.079056 -115.144812 178 2189ft 8kts
03-Sep-20 14:21 36.077779 -115.146814 275 2189ft 14kts
03-Sep-20 14:22 36.078051 -115.151634 270 2189ft 13kts
03-Sep-20 14:24 36.078035 -115.157544 269 2189ft 19kts
03-Sep-20 14:25 36.077361 -115.161283 180 2189ft 6kts
03-Sep-20 14:26 36.076395 -115.157836 90 2189ft 73kts
03-Sep-20 14:27 36.076127 -115.101901 91 3790ft 190kts
03-Sep-20 14:28 36.076275 -115.022605 89 5498ft 271kts
03-Sep-20 14:29 36.042266 -114.938945 147 9077ft 298kts
03-Sep-20 14:30 35.956682 -114.923341 200 11480ft 357kts
03-Sep-20 14:31 35.878551 -115.003068 225 14798ft 376kts
03-Sep-20 14:32 35.805284 -115.098269 231 17927ft 392kts
03-Sep-20 14:33 35.735935 -115.205920 231 19073ft 397kts
03-Sep-20 14:34 35.649924 -115.288834 196 21093ft 411kts
03-Sep-20 14:35 35.534379 -115.300206 181 23739ft 426kts
03-Sep-20 14:36 35.413935 -115.305089 181 26210ft 441kts
03-Sep-20 14:37 35.289809 -115.310140 181 28047ft 460kts
03-Sep-20 14:38 35.161813 -115.315112 181 27990ft 457kts
03-Sep-20 14:39 35.034628 -115.320078 181 27939ft 459kts
03-Sep-20 14:40 34.907635 -115.325044 181 27935ft 454kts
03-Sep-20 14:40 34.803137 -115.337046 191 27937ft 453kts
03-Sep-20 14:42 34.661568 -115.386509 197 27966ft 454kts
03-Sep-20 14:43 34.542371 -115.436320 198 28074ft 455kts
03-Sep-20 14:43 34.443246 -115.478985 199 28082ft 455kts
03-Sep-20 14:44 34.326406 -115.536432 207 28086ft 455kts
03-Sep-20 14:46 34.195144 -115.618367 202 28085ft 455kts
03-Sep-20 14:46 34.097689 -115.666817 201 28082ft 455kts
03-Sep-20 14:47 33.980515 -115.723029 200 28082ft 455kts
03-Sep-20 14:48 33.863238 -115.779411 201 28082ft 455kts
03-Sep-20 14:49 33.750349 -115.834728 200 28085ft 422kts
03-Sep-20 14:50 33.638960 -115.886758 200 27973ft 429kts
03-Sep-20 14:51 33.533452 -115.948366 220 26181ft 428kts
03-Sep-20 14:52 33.454294 -116.056862 232 23629ft 437kts
03-Sep-20 14:53 33.383183 -116.173834 234 21448ft 432kts
03-Sep-20 14:54 33.297807 -116.271237 209 19202ft 425kts
03-Sep-20 14:55 33.193608 -116.334371 205 17083ft 415kts
03-Sep-20 14:56 33.093818 -116.392763 205 15008ft 375kts
03-Sep-20 14:57 33.002484 -116.449241 215 13027ft 370kts
03-Sep-20 14:58 32.924004 -116.526491 220 11135ft 367kts
03-Sep-20 14:59 32.848301 -116.602885 220 10026ft 340kts
03-Sep-20 15:00 32.779535 -116.674123 228 8998ft 297kts
03-Sep-20 15:01 32.739153 -116.751107 239 8265ft 274kts
03-Sep-20 15:02 32.703191 -116.830521 247 7309ft 268kts
03-Sep-20 15:03 32.678308 -116.915618 258 4947ft 288kts
03-Sep-20 15:04 32.688857 -117.005740 285 3105ft 244kts
03-Sep-20 15:05 32.705724 -117.074671 285 2027ft 192kts
03-Sep-20 15:06 32.719839 -117.132161 285 1065ft 155kts
03-Sep-20 15:07 32.731055 -117.179375 286 63ft 148kts
03-Sep-20 15:08 32.734199 -117.194922 250 23ft 8kts
03-Sep-20 15:09 32.734041 -117.195480 252 22ft 2kts
03-Sep-20 15:10 32.733236 -117.196024 196 21ft 0kts

Navigation Log

Ident Type
Flight plan parsing failed, navigation log unavailable